Time;durP1;ratioP1;P1;durP2;ratioP2;P2;SDS_P1;SDS_P2;PMS_P1;PMS_P2;Temp;Humidity;BMP_temperature;BMP_pressure;BME280_temperature;BME280_humidity;BME280_pressure;Samples;Min_cycle;Max_cycle;Signal;HPM_P1;HPM_P2
2022/01/18 00:01:51;;;;;;;44.60;6.47;;;5.60;99.90;;;;;;5128855;27;20075;-77
2022/01/18 00:04:18;;;;;;;48.63;6.82;;;5.60;99.90;;;;;;5117310;27;20034;-78
2022/01/18 00:06:48;;;;;;;47.78;6.00;;;5.50;99.90;;;;;;5114137;27;20523;-78
2022/01/18 00:09:13;;;;;;;45.85;5.97;;;5.40;99.90;;;;;;5134004;27;20099;-78
2022/01/18 00:11:45;;;;;;;52.25;6.75;;;5.40;99.90;;;;;;5135476;27;20038;-78
2022/01/18 00:14:40;;;;;;;52.92;7.68;;;5.30;99.90;;;;;;5137301;27;20518;-78
2022/01/18 00:17:05;;;;;;;55.17;7.68;;;5.30;99.90;;;;;;5125312;27;20054;-78
2022/01/18 00:19:33;;;;;;;50.38;6.43;;;5.30;99.90;;;;;;5129154;27;20097;-78
2022/01/18 00:24:27;;;;;;;50.47;5.90;;;5.30;99.90;;;;;;5123667;27;20038;-78
2022/01/18 00:26:52;;;;;;;53.35;6.95;;;5.30;99.90;;;;;;5125409;27;20587;-78
2022/01/18 00:29:22;;;;;;;49.45;6.40;;;5.30;99.90;;;;;;5119787;27;20511;-77
2022/01/18 00:39:41;;;;;;;54.78;8.25;;;5.40;99.90;;;;;;5117078;27;20051;-77
2022/01/18 00:42:09;;;;;;;48.50;7.07;;;5.40;99.90;;;;;;5099515;27;20049;-78
2022/01/18 00:44:35;;;;;;;52.67;7.07;;;5.40;99.90;;;;;;5135605;27;20035;-78
2022/01/18 00:47:01;;;;;;;49.83;6.43;;;5.50;99.90;;;;;;5126546;27;20030;-78
2022/01/18 00:49:27;;;;;;;54.85;7.25;;;5.50;99.90;;;;;;5120757;27;20027;-77
2022/01/18 00:51:56;;;;;;;42.78;5.80;;;5.50;99.90;;;;;;5121028;27;20175;-78
2022/01/18 00:54:26;;;;;;;50.00;7.15;;;5.50;99.90;;;;;;5121808;27;20038;-78
2022/01/18 00:56:53;;;;;;;46.03;5.47;;;5.50;99.90;;;;;;5109244;27;20499;-77
2022/01/18 00:59:20;;;;;;;45.72;7.03;;;5.50;99.90;;;;;;5132793;27;20096;-77
2022/01/18 01:01:46;;;;;;;56.22;5.95;;;5.50;99.90;;;;;;5117082;27;20035;-78
2022/01/18 01:04:12;;;;;;;78.57;7.30;;;5.50;99.90;;;;;;5098895;27;20034;-77
2022/01/18 01:06:38;;;;;;;71.10;7.80;;;5.50;99.90;;;;;;5119826;27;20054;-78
2022/01/18 01:09:04;;;;;;;62.92;7.13;;;5.50;99.90;;;;;;5115430;27;20055;-78
2022/01/18 01:11:32;;;;;;;49.53;5.85;;;5.50;99.90;;;;;;5116420;27;20035;-78
2022/01/18 01:14:00;;;;;;;57.40;6.35;;;5.40;99.90;;;;;;5128186;27;20043;-77
2022/01/18 01:19:13;;;;;;;53.72;6.50;;;5.30;99.90;;;;;;5152971;27;20126;-78
2022/01/18 01:35:45;;;;;;;48.95;5.85;;;5.10;99.90;;;;;;5120785;27;20046;-78
2022/01/18 01:46:25;;;;;;;44.33;5.15;;;4.90;99.90;;;;;;5115151;27;19919;-78
2022/01/18 01:48:54;;;;;;;59.97;6.32;;;5.00;99.90;;;;;;5115702;27;20043;-78
2022/01/18 01:51:21;;;;;;;43.42;5.47;;;4.90;99.90;;;;;;5101642;27;20050;-77
2022/01/18 01:53:47;;;;;;;44.22;4.82;;;4.90;99.90;;;;;;5129646;27;20109;-78
2022/01/18 01:56:13;;;;;;;45.58;6.18;;;4.90;99.90;;;;;;5134378;27;20187;-78
2022/01/18 01:58:38;;;;;;;44.78;6.60;;;4.90;99.90;;;;;;5117119;27;20041;-78
2022/01/18 02:01:06;;;;;;;55.47;6.53;;;4.80;99.90;;;;;;5133477;27;20515;-78
2022/01/18 02:03:31;;;;;;;36.13;5.95;;;4.80;99.90;;;;;;5134626;27;20035;-78
2022/01/18 02:05:57;;;;;;;54.25;5.70;;;4.90;99.90;;;;;;5128923;27;20046;-78
2022/01/18 02:08:22;;;;;;;43.17;6.05;;;4.90;99.90;;;;;;5135749;27;20053;-78
2022/01/18 02:10:48;;;;;;;48.08;5.53;;;4.90;99.90;;;;;;5119597;27;20049;-78
2022/01/18 02:13:16;;;;;;;44.35;5.15;;;5.00;99.90;;;;;;5115629;27;20377;-77
2022/01/18 02:16:08;;;;;;;35.08;4.63;;;5.10;99.90;;;;;;5114700;27;20084;-78
2022/01/18 02:23:58;;;;;;;45.10;5.00;;;5.20;99.90;;;;;;5117784;27;20175;-78
2022/01/18 02:26:24;;;;;;;47.97;5.38;;;5.20;99.90;;;;;;5131423;27;20070;-78
2022/01/18 02:28:49;;;;;;;44.13;5.15;;;5.20;99.90;;;;;;5118419;27;20046;-79
2022/01/18 02:31:15;;;;;;;34.50;5.30;;;5.20;99.90;;;;;;5133560;27;20045;-78
2022/01/18 02:33:40;;;;;;;42.10;5.05;;;5.20;99.90;;;;;;5126458;27;20402;-77
2022/01/18 02:36:07;;;;;;;34.28;5.43;;;5.20;99.90;;;;;;5135130;27;20043;-78
2022/01/18 02:38:33;;;;;;;32.83;5.07;;;5.20;99.90;;;;;;5125131;27;20046;-78
2022/01/18 02:40:59;;;;;;;36.47;4.47;;;5.30;99.90;;;;;;5115149;27;20031;-79
2022/01/18 02:46:19;;;;;;;38.22;3.85;;;5.30;99.90;;;;;;5111027;27;20066;-78
2022/01/18 02:48:44;;;;;;;31.80;4.13;;;5.30;99.90;;;;;;5124088;27;20031;-77
2022/01/18 02:51:11;;;;;;;32.33;4.70;;;5.30;99.90;;;;;;5098893;27;20126;-78
2022/01/18 02:54:09;;;;;;;32.40;3.95;;;5.40;99.90;;;;;;5134477;27;20056;-78
2022/01/18 02:56:43;;;;;;;33.72;4.90;;;5.30;99.90;;;;;;5134953;27;20045;-78
2022/01/18 03:04:26;;;;;;;31.35;5.13;;;5.30;99.90;;;;;;5115665;27;20132;-78
2022/01/18 03:06:51;;;;;;;25.35;4.47;;;5.30;99.90;;;;;;5117400;27;20129;-78
2022/01/18 03:09:17;;;;;;;27.90;4.40;;;5.30;99.90;;;;;;5134902;27;20041;-79
2022/01/18 03:11:42;;;;;;;27.88;3.50;;;5.30;99.90;;;;;;5127079;27;20118;-79
2022/01/18 03:14:08;;;;;;;31.50;3.60;;;5.30;99.90;;;;;;5100396;27;20389;-79
2022/01/18 03:16:34;;;;;;;25.90;3.28;;;5.30;99.90;;;;;;5114017;27;20039;-79
2022/01/18 03:18:59;;;;;;;30.00;3.72;;;5.40;99.90;;;;;;5117023;27;20563;-77
2022/01/18 03:21:25;;;;;;;28.33;4.10;;;5.40;99.90;;;;;;5135222;27;20030;-79
2022/01/18 03:23:59;;;;;;;24.65;3.47;;;5.40;99.90;;;;;;5118480;28;20067;-78
2022/01/18 03:26:32;;;;;;;30.08;3.72;;;5.40;99.90;;;;;;5122806;27;20037;-79
2022/01/18 03:28:57;;;;;;;26.05;4.53;;;5.40;99.90;;;;;;5096552;27;20032;-78
2022/01/18 03:31:23;;;;;;;25.10;3.15;;;5.40;99.90;;;;;;5115220;27;20506;-79
2022/01/18 03:33:49;;;;;;;27.27;3.92;;;5.40;99.90;;;;;;5112666;28;20083;-79
2022/01/18 03:36:14;;;;;;;29.65;3.88;;;5.40;99.90;;;;;;5121965;27;20027;-78
2022/01/18 03:38:40;;;;;;;23.77;3.92;;;5.40;99.90;;;;;;5121278;27;20578;-79
2022/01/18 03:41:06;;;;;;;29.55;3.15;;;5.50;99.90;;;;;;5126307;27;20031;-79
2022/01/18 03:43:35;;;;;;;31.17;4.00;;;5.50;99.90;;;;;;5121071;27;20091;-79
2022/01/18 03:46:02;;;;;;;22.08;3.78;;;5.50;99.90;;;;;;5130597;27;20056;-79
2022/01/18 03:48:38;;;;;;;20.13;3.05;;;5.50;99.90;;;;;;5135663;27;20046;-79
2022/01/18 03:51:06;;;;;;;17.25;3.03;;;5.50;99.90;;;;;;5132761;27;20039;-79
2022/01/18 03:53:33;;;;;;;23.88;3.15;;;5.60;99.90;;;;;;5135760;27;20400;-79
2022/01/18 03:55:59;;;;;;;23.25;3.08;;;5.50;99.90;;;;;;5120894;27;20102;-79
2022/01/18 03:58:25;;;;;;;23.15;3.15;;;5.50;99.90;;;;;;5120841;27;20049;-79
2022/01/18 04:00:50;;;;;;;23.38;3.03;;;5.60;99.90;;;;;;5118051;27;20072;-79
2022/01/18 04:03:17;;;;;;;22.50;3.92;;;5.60;99.90;;;;;;5126885;27;20035;-79
2022/01/18 04:05:43;;;;;;;19.95;2.90;;;5.60;99.90;;;;;;5138215;27;20102;-79
2022/01/18 04:08:08;;;;;;;27.02;3.90;;;5.60;99.90;;;;;;5133999;27;20035;-79
2022/01/18 04:10:34;;;;;;;19.10;2.50;;;5.60;99.90;;;;;;5118183;27;20039;-79
2022/01/18 04:13:00;;;;;;;19.67;2.58;;;5.60;99.90;;;;;;5118342;27;20043;-79
2022/01/18 04:15:25;;;;;;;19.83;3.72;;;5.60;99.90;;;;;;5117719;27;20051;-78
2022/01/18 04:26:52;;;;;;;18.10;3.05;;;5.60;99.90;;;;;;5114802;27;20058;-78
2022/01/18 04:28:54;;;;;;;16.10;2.33;;;5.60;99.90;;;;;;5107519;27;20071;-79
2022/01/18 04:31:20;;;;;;;10.95;1.73;;;5.60;99.90;;;;;;5147759;27;20039;-79
2022/01/18 04:33:46;;;;;;;17.95;2.15;;;5.60;99.90;;;;;;5120319;27;20049;-79
2022/01/18 04:36:12;;;;;;;18.25;2.42;;;5.60;99.90;;;;;;5117681;27;20039;-79
2022/01/18 04:38:38;;;;;;;13.93;2.17;;;5.60;99.90;;;;;;5134825;27;20114;-79
2022/01/18 04:41:07;;;;;;;16.25;2.40;;;5.60;99.90;;;;;;5135187;27;20060;-79
2022/01/18 04:43:47;;;;;;;20.70;2.20;;;5.70;99.90;;;;;;5126864;27;20106;-79
2022/01/18 04:48:57;;;;;;;12.30;2.22;;;5.60;99.90;;;;;;5127555;27;20454;-79
2022/01/18 04:51:23;;;;;;;17.67;2.33;;;5.60;99.90;;;;;;5104831;27;20035;-79
2022/01/18 04:53:55;;;;;;;13.40;2.15;;;5.70;99.90;;;;;;5120015;27;20087;-78
2022/01/18 04:59:04;;;;;;;11.32;2.47;;;5.70;99.90;;;;;;5138134;27;20038;-79
2022/01/18 05:01:30;;;;;;;17.77;2.63;;;5.70;99.90;;;;;;5137130;27;20054;-79
2022/01/18 05:03:55;;;;;;;11.15;1.90;;;5.60;99.90;;;;;;5137152;27;20479;-79
2022/01/18 05:06:21;;;;;;;13.13;2.45;;;5.70;99.90;;;;;;5133186;27;20403;-79
2022/01/18 05:08:47;;;;;;;18.40;1.83;;;5.70;99.90;;;;;;5135308;27;20039;-79
2022/01/18 05:11:16;;;;;;;14.00;2.03;;;5.70;99.90;;;;;;5135104;27;20077;-79
2022/01/18 05:19:03;;;;;;;16.10;2.13;;;5.80;99.90;;;;;;5119744;27;20082;-79
2022/01/18 05:21:34;;;;;;;10.48;1.58;;;5.90;99.90;;;;;;5119497;27;20031;-79
2022/01/18 05:24:00;;;;;;;11.48;1.85;;;5.90;99.90;;;;;;5119396;27;20553;-79
2022/01/18 05:26:28;;;;;;;11.32;1.73;;;5.90;99.90;;;;;;5116416;27;20035;-79
2022/01/18 05:28:54;;;;;;;15.85;1.90;;;5.90;99.90;;;;;;5117609;27;20051;-79
2022/01/18 05:31:20;;;;;;;13.43;1.80;;;5.90;99.90;;;;;;5117004;27;20579;-79
2022/01/18 05:33:47;;;;;;;9.73;2.38;;;5.90;99.90;;;;;;5131550;27;20042;-79
2022/01/18 05:36:14;;;;;;;11.45;1.90;;;5.90;99.90;;;;;;5128123;27;20492;-80
2022/01/18 05:38:40;;;;;;;14.32;1.98;;;5.90;99.90;;;;;;5116375;27;20087;-80
2022/01/18 05:41:07;;;;;;;14.85;2.08;;;5.80;99.90;;;;;;5128793;27;20117;-80
2022/01/18 05:43:33;;;;;;;14.95;2.13;;;5.90;99.90;;;;;;5116020;27;20062;-79
2022/01/18 05:45:59;;;;;;;11.38;2.40;;;5.90;99.90;;;;;;5120544;27;20400;-80
2022/01/18 05:48:26;;;;;;;13.23;2.35;;;5.80;99.90;;;;;;5115734;27;20458;-79
2022/01/18 05:50:54;;;;;;;12.15;3.03;;;5.80;99.90;;;;;;5116158;27;20050;-79
2022/01/18 05:53:19;;;;;;;14.65;2.72;;;5.80;99.90;;;;;;5128741;27;20039;-79
2022/01/18 05:55:45;;;;;;;16.25;2.97;;;5.80;99.90;;;;;;5119008;27;20389;-80
2022/01/18 05:58:10;;;;;;;15.10;2.50;;;5.80;99.90;;;;;;5116651;27;20042;-78
2022/01/18 06:00:38;;;;;;;17.55;2.60;;;5.80;99.90;;;;;;5115852;27;20058;-79
2022/01/18 06:03:12;;;;;;;17.50;3.00;;;5.80;99.90;;;;;;5121072;27;20036;-76
2022/01/18 06:08:22;;;;;;;16.10;3.05;;;5.80;99.90;;;;;;5109335;27;20138;-79
2022/01/18 06:10:48;;;;;;;16.83;4.60;;;5.70;99.90;;;;;;5114385;27;20066;-79
2022/01/18 06:13:14;;;;;;;19.45;2.88;;;5.60;99.90;;;;;;5118034;27;20035;-79
2022/01/18 06:15:40;;;;;;;17.67;3.58;;;5.70;99.90;;;;;;5115274;27;20047;-79
2022/01/18 06:18:05;;;;;;;16.60;2.85;;;5.70;99.90;;;;;;5136051;27;20480;-78
2022/01/18 06:20:32;;;;;;;20.48;3.28;;;5.70;99.90;;;;;;5136762;27;20039;-79
2022/01/18 06:22:58;;;;;;;19.05;3.08;;;5.70;99.90;;;;;;5135257;27;20046;-79
2022/01/18 06:25:24;;;;;;;17.17;2.90;;;5.70;99.90;;;;;;5134441;27;20072;-79
2022/01/18 06:27:51;;;;;;;14.57;2.80;;;5.70;99.90;;;;;;5099564;27;20032;-79
2022/01/18 06:30:18;;;;;;;22.48;3.22;;;5.70;99.90;;;;;;5112521;27;20099;-80
2022/01/18 06:32:44;;;;;;;20.10;3.45;;;5.70;99.90;;;;;;5114215;27;20106;-79
2022/01/18 06:35:10;;;;;;;20.00;3.53;;;5.70;99.90;;;;;;5111448;27;20261;-79
2022/01/18 06:37:36;;;;;;;11.45;2.70;;;5.60;99.90;;;;;;5106387;27;20649;-79
2022/01/18 06:40:04;;;;;;;16.42;2.97;;;5.60;99.90;;;;;;5102804;27;20059;-78
2022/01/18 06:42:30;;;;;;;17.95;3.40;;;5.60;99.90;;;;;;5113086;28;20091;-79
2022/01/18 06:44:56;;;;;;;15.75;2.88;;;5.60;99.90;;;;;;5095263;28;20397;-79
2022/01/18 06:47:21;;;;;;;12.80;2.67;;;5.60;99.90;;;;;;5087507;27;20035;-79
2022/01/18 06:49:47;;;;;;;19.63;3.70;;;5.60;99.90;;;;;;5118191;27;20043;-80
2022/01/18 06:52:13;;;;;;;18.27;3.33;;;5.60;99.90;;;;;;5114976;27;20043;-79
2022/01/18 06:54:38;;;;;;;17.05;3.40;;;5.60;99.90;;;;;;5114238;27;20114;-78
2022/01/18 06:57:04;;;;;;;16.50;3.20;;;5.60;99.90;;;;;;5133842;27;20049;-79
2022/01/18 06:59:30;;;;;;;18.30;3.42;;;5.50;99.90;;;;;;5125605;27;20516;-79
2022/01/18 07:01:55;;;;;;;20.73;3.65;;;5.50;99.90;;;;;;5126260;27;20031;-79
2022/01/18 07:04:21;;;;;;;14.90;3.47;;;5.50;99.90;;;;;;5115860;27;20027;-79
2022/01/18 07:06:47;;;;;;;18.92;3.60;;;5.50;99.90;;;;;;5120981;27;20035;-78
2022/01/18 07:09:14;;;;;;;15.82;3.63;;;5.50;99.90;;;;;;5120824;27;20045;-79
2022/01/18 07:11:40;;;;;;;17.65;3.80;;;5.40;99.90;;;;;;5136472;27;20060;-79
2022/01/18 07:14:05;;;;;;;15.90;3.88;;;5.40;99.90;;;;;;5115281;27;20051;-79
2022/01/18 07:16:31;;;;;;;21.05;4.10;;;5.40;99.90;;;;;;5116439;27;20416;-78
2022/01/18 07:18:56;;;;;;;22.25;3.95;;;5.40;99.90;;;;;;5114940;28;20031;-79
2022/01/18 07:21:22;;;;;;;18.05;3.83;;;5.40;99.90;;;;;;5121774;27;20110;-79
2022/01/18 07:23:48;;;;;;;28.42;8.93;;;5.40;99.90;;;;;;5113023;28;20066;-78
2022/01/18 07:26:13;;;;;;;29.05;9.13;;;5.50;99.90;;;;;;5116178;28;20504;-77
2022/01/18 07:28:39;;;;;;;20.48;4.60;;;5.40;99.90;;;;;;5119787;27;20050;-79
2022/01/18 07:31:05;;;;;;;16.92;3.80;;;5.40;99.90;;;;;;5113700;28;20049;-79
2022/01/18 07:33:30;;;;;;;16.42;4.35;;;5.40;99.90;;;;;;5097764;28;20043;-78
2022/01/18 07:35:56;;;;;;;19.75;4.07;;;5.50;99.90;;;;;;5115312;27;20122;-78
2022/01/18 07:38:21;;;;;;;17.90;4.38;;;5.40;99.90;;;;;;5101486;28;20031;-79
2022/01/18 07:40:49;;;;;;;14.80;3.65;;;5.40;99.90;;;;;;5093531;28;20449;-79
2022/01/18 07:43:17;;;;;;;16.25;4.03;;;5.50;99.90;;;;;;5109934;28;20526;-79
2022/01/18 07:45:47;;;;;;;14.32;4.80;;;5.40;99.90;;;;;;5111122;28;20044;-79
2022/01/18 07:48:13;;;;;;;19.27;3.95;;;5.40;99.90;;;;;;5129496;27;20039;-79
2022/01/18 07:50:42;;;;;;;14.55;3.72;;;5.40;99.90;;;;;;5108898;28;20412;-79
2022/01/18 07:53:07;;;;;;;15.40;3.75;;;5.40;99.90;;;;;;5091456;28;20081;-79
2022/01/18 07:55:33;;;;;;;24.77;4.43;;;5.30;99.90;;;;;;5094283;28;20044;-78
2022/01/18 07:58:00;;;;;;;20.25;4.30;;;5.40;99.90;;;;;;5099727;27;20031;-78
2022/01/18 08:00:26;;;;;;;18.58;4.20;;;5.30;99.90;;;;;;5097279;28;20042;-79
2022/01/18 08:02:51;;;;;;;23.88;9.55;;;5.30;99.90;;;;;;5113570;27;20043;-79
2022/01/18 08:05:17;;;;;;;29.55;8.23;;;5.30;99.90;;;;;;5113392;28;20503;-79
2022/01/18 08:07:43;;;;;;;14.43;5.60;;;5.30;99.90;;;;;;5116823;27;20068;-79
2022/01/18 08:10:10;;;;;;;19.38;4.75;;;5.30;99.90;;;;;;5098054;28;20096;-79
2022/01/18 08:12:36;;;;;;;15.65;4.13;;;5.20;99.90;;;;;;5096695;28;20028;-79
2022/01/18 08:15:12;;;;;;;15.27;5.47;;;5.30;99.90;;;;;;5103154;28;20446;-79
2022/01/18 08:17:38;;;;;;;18.55;5.95;;;5.20;99.90;;;;;;5100705;28;20044;-79
2022/01/18 08:20:04;;;;;;;22.45;5.65;;;5.20;99.90;;;;;;5094879;28;20112;-79
2022/01/18 08:22:30;;;;;;;20.60;6.30;;;5.10;99.90;;;;;;5077572;28;20489;-79
2022/01/18 08:24:55;;;;;;;16.60;6.13;;;5.10;99.90;;;;;;5099789;28;20084;-79
2022/01/18 08:27:22;;;;;;;17.50;5.50;;;5.10;99.90;;;;;;5108040;27;20060;-78
2022/01/18 08:29:47;;;;;;;20.45;4.90;;;5.10;99.90;;;;;;5094627;27;20114;-79
2022/01/18 08:32:13;;;;;;;19.15;4.20;;;5.10;99.90;;;;;;5120529;27;20165;-79
2022/01/18 08:34:39;;;;;;;14.07;3.63;;;5.10;99.90;;;;;;5119886;27;20043;-80
2022/01/18 08:37:05;;;;;;;17.23;3.92;;;5.10;99.90;;;;;;5120495;27;20038;-79
2022/01/18 08:39:30;;;;;;;14.05;3.95;;;5.20;99.90;;;;;;5121370;27;20059;-79
2022/01/18 08:41:56;;;;;;;16.63;3.58;;;5.20;99.90;;;;;;5128985;27;20085;-79
2022/01/18 08:44:21;;;;;;;15.25;3.50;;;5.20;99.90;;;;;;5101651;27;20035;-79
2022/01/18 08:46:47;;;;;;;16.25;4.00;;;5.30;99.90;;;;;;5122374;27;20039;-79
2022/01/18 08:49:13;;;;;;;17.30;3.60;;;5.30;99.90;;;;;;5098363;27;20035;-79
2022/01/18 08:51:38;;;;;;;14.68;2.95;;;5.40;99.90;;;;;;5115530;27;20092;-78
2022/01/18 08:54:04;;;;;;;19.38;3.67;;;5.40;99.90;;;;;;5115532;28;20044;-80
2022/01/18 08:56:30;;;;;;;19.83;3.35;;;5.50;99.90;;;;;;5105135;27;20537;-78
2022/01/18 08:58:57;;;;;;;12.45;3.00;;;5.60;99.90;;;;;;5114485;27;20492;-78
2022/01/18 09:01:23;;;;;;;15.73;3.70;;;5.60;99.90;;;;;;5104004;27;20070;-79
2022/01/18 09:03:50;;;;;;;15.20;3.22;;;5.60;99.90;;;;;;5120484;27;20046;-79
2022/01/18 09:06:17;;;;;;;12.57;3.42;;;5.70;99.90;;;;;;5119419;27;20080;-79
2022/01/18 09:08:43;;;;;;;16.67;3.80;;;5.80;99.90;;;;;;5120303;27;20043;-78
2022/01/18 09:11:11;;;;;;;15.52;4.93;;;5.80;99.90;;;;;;5120723;27;20039;-78
2022/01/18 09:13:38;;;;;;;19.83;5.38;;;5.80;99.90;;;;;;5119293;27;20072;-79
2022/01/18 09:16:06;;;;;;;15.68;5.50;;;5.90;99.90;;;;;;5118524;27;20042;-79
2022/01/18 09:18:32;;;;;;;18.63;4.47;;;5.90;99.90;;;;;;5114758;28;20040;-79
2022/01/18 09:20:58;;;;;;;18.80;3.83;;;5.90;99.90;;;;;;5082091;27;20431;-79
2022/01/18 09:23:23;;;;;;;13.63;3.50;;;6.00;99.90;;;;;;5108053;27;20035;-79
2022/01/18 09:25:49;;;;;;;12.80;3.88;;;6.10;99.90;;;;;;5117250;27;20039;-80
2022/01/18 09:28:15;;;;;;;15.38;4.05;;;6.10;99.90;;;;;;5116587;27;20047;-80
2022/01/18 09:30:41;;;;;;;20.55;5.28;;;6.10;99.90;;;;;;5110143;27;20051;-80
2022/01/18 09:33:07;;;;;;;20.50;4.75;;;6.10;99.90;;;;;;5110404;27;20063;-80
2022/01/18 09:35:37;;;;;;;16.08;4.53;;;6.20;99.90;;;;;;5094150;27;20066;-80
2022/01/18 09:38:04;;;;;;;18.38;5.13;;;6.20;99.90;;;;;;5102624;27;20036;-79
2022/01/18 09:40:30;;;;;;;18.02;6.05;;;6.20;99.90;;;;;;5102544;27;20028;-80
2022/01/18 09:42:59;;;;;;;17.67;6.57;;;6.20;99.90;;;;;;5114861;27;21054;-79
2022/01/18 09:45:27;;;;;;;23.38;6.97;;;6.20;99.90;;;;;;5112796;27;20043;-80
2022/01/18 09:47:54;;;;;;;22.35;6.38;;;6.30;99.90;;;;;;5096661;27;20082;-78
2022/01/18 09:50:23;;;;;;;24.33;6.97;;;6.30;99.90;;;;;;5115475;27;20046;-80
2022/01/18 09:52:53;;;;;;;21.38;7.65;;;6.30;99.90;;;;;;5097024;27;20039;-80
2022/01/18 09:55:22;;;;;;;14.63;6.20;;;6.40;99.90;;;;;;5112903;27;20035;-80
2022/01/18 09:57:49;;;;;;;24.55;7.00;;;6.40;99.90;;;;;;5096475;27;20130;-80
2022/01/18 10:00:16;;;;;;;18.60;6.38;;;6.50;99.90;;;;;;5114806;27;20427;-80
2022/01/18 10:02:42;;;;;;;22.13;6.85;;;6.50;99.90;;;;;;5112775;27;20028;-80
2022/01/18 10:05:24;;;;;;;20.35;6.43;;;6.50;99.90;;;;;;5118193;27;20046;-80
2022/01/18 10:08:01;;;;;;;19.83;6.43;;;6.50;99.90;;;;;;5115891;27;20043;-80
2022/01/18 10:10:41;;;;;;;21.55;6.78;;;6.50;99.90;;;;;;5116184;27;20512;-79
2022/01/18 10:13:08;;;;;;;21.58;6.25;;;6.60;99.90;;;;;;5115537;27;20046;-80
2022/01/18 10:15:34;;;;;;;19.30;6.35;;;6.70;99.90;;;;;;5115712;27;20047;-80
2022/01/18 10:18:08;;;;;;;17.48;5.90;;;6.70;99.90;;;;;;5115580;27;20353;-80
2022/01/18 10:20:51;;;;;;;;;;;6.80;99.90;;;;;;5116434;27;20515;-80
2022/01/18 10:23:22;;;;;;;21.83;5.60;;;6.90;99.90;;;;;;5098743;27;20428;-80
2022/01/18 10:25:48;;;;;;;18.00;5.10;;;6.90;99.90;;;;;;5115274;27;20039;-80
2022/01/18 10:28:28;;;;;;;16.45;4.25;;;6.80;99.90;;;;;;5116124;27;20050;-79
2022/01/18 10:30:54;;;;;;;17.23;3.60;;;6.70;99.90;;;;;;5115497;27;20047;-80
2022/01/18 10:33:26;;;;;;;16.23;4.25;;;6.60;99.90;;;;;;5114344;27;20051;-79
2022/01/18 10:36:21;;;;;;;15.05;4.97;;;6.60;99.90;;;;;;5111968;27;20046;-80
2022/01/18 10:38:48;;;;;;;12.35;3.70;;;6.50;99.90;;;;;;5092099;27;20139;-79
2022/01/18 10:41:28;;;;;;;10.80;3.78;;;6.50;99.90;;;;;;5114637;27;20035;-79
2022/01/18 10:44:15;;;;;;;19.85;3.97;;;6.40;99.90;;;;;;5115244;27;20570;-80
2022/01/18 10:46:49;;;;;;;18.10;4.60;;;6.50;99.90;;;;;;5115305;27;20392;-79
2022/01/18 10:49:30;;;;;;;14.60;4.72;;;6.50;99.90;;;;;;5115171;27;20045;-79
2022/01/18 10:51:59;;;;;;;15.35;4.25;;;6.50;99.90;;;;;;5112786;27;20497;-79
2022/01/18 10:54:56;;;;;;;19.30;4.57;;;6.50;99.90;;;;;;5115970;27;20103;-80
2022/01/18 10:57:27;;;;;;;12.57;4.55;;;6.50;99.90;;;;;;5098704;27;20459;-79
2022/01/18 11:00:00;;;;;;;15.85;5.78;;;6.60;99.90;;;;;;5114181;27;20080;-79
2022/01/18 11:02:26;;;;;;;14.43;4.32;;;6.60;99.90;;;;;;5116132;27;20043;-79
2022/01/18 11:04:56;;;;;;;18.08;4.65;;;6.70;99.90;;;;;;5116440;27;20122;-78
2022/01/18 11:07:24;;;;;;;15.70;5.07;;;6.70;99.90;;;;;;5116401;27;20138;-79
2022/01/18 11:09:50;;;;;;;13.15;4.15;;;6.70;99.90;;;;;;5116570;27;20039;-79
2022/01/18 11:12:19;;;;;;;11.10;4.05;;;6.70;99.90;;;;;;5115565;27;20046;-78
2022/01/18 11:14:49;;;;;;;14.20;3.72;;;6.80;99.90;;;;;;5115529;27;20035;-79
2022/01/18 11:17:22;;;;;;;11.85;3.50;;;6.80;99.90;;;;;;5097646;28;20040;-79
2022/01/18 11:19:50;;;;;;;10.68;3.38;;;6.80;99.90;;;;;;5114837;28;20039;-79
2022/01/18 11:22:16;;;;;;;12.48;3.47;;;6.90;99.90;;;;;;5133302;27;20520;-79
2022/01/18 11:24:44;;;;;;;11.32;3.38;;;6.80;99.90;;;;;;5115561;27;20042;-79
2022/01/18 11:27:14;;;;;;;10.80;3.25;;;6.80;99.90;;;;;;5114956;27;20226;-79
2022/01/18 11:29:45;;;;;;;10.38;3.63;;;6.90;99.90;;;;;;5114927;28;20050;-79
2022/01/18 11:32:11;;;;;;;13.75;4.40;;;6.80;99.90;;;;;;5114745;28;20039;-79
2022/01/18 11:34:50;;;;;;;12.57;4.00;;;6.80;99.90;;;;;;5115402;28;20049;-79
2022/01/18 11:37:24;;;;;;;15.10;5.53;;;6.70;99.90;;;;;;5098047;28;20065;-79
2022/01/18 11:40:01;;;;;;;14.45;5.40;;;6.80;99.90;;;;;;5115685;28;20035;-78
2022/01/18 11:42:49;;;;;;;11.95;3.13;;;6.80;99.90;;;;;;5118885;28;20039;-78
2022/01/18 11:45:24;;;;;;;11.23;3.15;;;6.80;99.90;;;;;;5115286;28;20043;-78
2022/01/18 11:48:13;;;;;;;13.93;3.53;;;6.80;99.90;;;;;;5114850;28;20039;-79
2022/01/18 11:51:03;;;;;;;9.75;3.05;;;6.70;99.90;;;;;;5104232;28;20051;-79
2022/01/18 11:53:42;;;;;;;10.70;3.13;;;6.80;99.90;;;;;;5114554;28;20046;-79
2022/01/18 11:56:30;;;;;;;12.18;3.50;;;6.80;99.90;;;;;;5114434;28;20242;-78
2022/01/18 11:59:16;;;;;;;12.82;4.20;;;6.80;99.90;;;;;;5117291;28;20050;-78
2022/01/18 12:01:59;;;;;;;13.25;4.13;;;6.80;99.90;;;;;;5115326;28;20046;-78
2022/01/18 12:04:41;;;;;;;12.38;3.47;;;6.70;99.90;;;;;;5118314;27;20031;-78
2022/01/18 12:07:08;;;;;;;10.57;3.63;;;6.80;99.90;;;;;;5118279;27;20062;-78
2022/01/18 12:09:42;;;;;;;12.82;4.00;;;6.70;99.90;;;;;;5118215;27;20172;-77
2022/01/18 12:12:43;;;;;;;11.82;3.25;;;6.70;99.90;;;;;;5118409;27;20404;-78
2022/01/18 12:15:24;;;;;;;13.82;4.28;;;6.80;99.90;;;;;;5118674;27;20472;-79
2022/01/18 12:17:52;;;;;;;12.80;4.57;;;6.80;99.90;;;;;;5101144;27;20039;-78
2022/01/18 12:20:46;;;;;;;15.98;5.22;;;6.70;99.90;;;;;;5101631;27;20039;-78
2022/01/18 12:23:21;;;;;;;12.07;4.63;;;6.70;99.90;;;;;;5118228;27;20047;-78
2022/01/18 12:27:10;;;;;;;14.07;5.70;;;6.70;99.90;;;;;;5100981;27;20042;-77
2022/01/18 12:29:46;;;;;;;16.02;5.70;;;6.60;99.90;;;;;;5105144;27;20419;-79
2022/01/18 12:34:48;;;;;;;17.85;5.50;;;6.70;99.90;;;;;;5118115;27;20130;-78
2022/01/18 12:37:17;;;;;;;16.83;4.95;;;6.70;99.90;;;;;;5114186;27;20500;-78
2022/01/18 12:45:11;;;;;;;17.60;5.72;;;6.70;99.90;;;;;;5119412;27;20153;-79
2022/01/18 12:47:47;;;;;;;16.60;5.50;;;6.60;99.90;;;;;;5120707;27;20505;-78
2022/01/18 12:50:13;;;;;;;20.00;5.45;;;6.60;99.90;;;;;;5118702;27;20050;-78
2022/01/18 12:52:52;;;;;;;12.02;4.50;;;6.60;99.90;;;;;;5095607;27;20031;-79
2022/01/18 12:55:32;;;;;;;20.90;5.05;;;6.60;99.90;;;;;;5112416;27;20043;-78
2022/01/18 12:57:58;;;;;;;13.50;4.93;;;6.60;99.90;;;;;;5110778;27;20096;-78
2022/01/18 13:00:23;;;;;;;16.85;5.22;;;6.60;99.90;;;;;;5100711;27;20122;-77
2022/01/18 13:02:49;;;;;;;20.08;5.97;;;6.60;99.90;;;;;;5118990;27;20046;-78
2022/01/18 13:05:14;;;;;;;17.40;5.30;;;6.70;99.90;;;;;;5117290;27;20029;-78
2022/01/18 13:07:53;;;;;;;17.80;5.95;;;6.80;99.90;;;;;;5116726;27;20121;-78
2022/01/18 13:10:32;;;;;;;21.30;6.18;;;6.80;99.90;;;;;;5116754;27;20048;-78
2022/01/18 13:12:59;;;;;;;17.50;5.65;;;6.80;99.90;;;;;;5116827;27;20460;-78
2022/01/18 13:15:39;;;;;;;18.65;6.57;;;6.90;99.90;;;;;;5114425;27;20154;-78
2022/01/18 13:23:52;;;;;;;17.70;6.15;;;7.10;99.90;;;;;;5116140;27;20043;-78
2022/01/18 13:26:34;;;;;;;17.77;6.32;;;7.00;99.90;;;;;;5115312;27;20039;-78
2022/01/18 13:29:22;;;;;;;14.70;5.88;;;7.10;99.90;;;;;;5116531;27;20075;-78
2022/01/18 13:32:14;;;;;;;18.08;6.20;;;7.00;99.90;;;;;;5112627;28;20035;-77
2022/01/18 13:34:41;;;;;;;14.20;5.65;;;7.10;99.90;;;;;;5095418;28;20037;-78
2022/01/18 13:37:12;;;;;;;19.25;5.93;;;7.00;99.90;;;;;;5078336;28;20039;-78
2022/01/18 13:39:40;;;;;;;18.58;6.75;;;7.00;99.90;;;;;;5095570;28;20036;-77
2022/01/18 13:42:10;;;;;;;15.15;5.88;;;7.00;99.90;;;;;;5095536;28;20075;-78
2022/01/18 13:44:36;;;;;;;18.98;5.55;;;7.00;99.90;;;;;;5095357;28;20401;-77
2022/01/18 13:47:12;;;;;;;14.30;5.82;;;7.00;99.90;;;;;;5095205;28;20079;-78
2022/01/18 13:49:38;;;;;;;17.63;6.05;;;7.10;99.90;;;;;;5095311;28;20044;-78
2022/01/18 13:52:12;;;;;;;15.48;6.00;;;7.20;99.90;;;;;;5095123;28;20044;-77
2022/01/18 13:54:48;;;;;;;21.45;6.35;;;7.20;99.90;;;;;;5105595;27;20130;-78
2022/01/18 13:57:15;;;;;;;15.70;6.32;;;7.10;99.90;;;;;;5112224;27;20042;-78
2022/01/18 13:59:41;;;;;;;13.35;5.78;;;7.00;99.90;;;;;;5095193;28;20077;-77
2022/01/18 14:02:16;;;;;;;14.63;5.93;;;6.90;99.90;;;;;;5095280;27;20035;-77
2022/01/18 14:04:42;;;;;;;15.20;6.15;;;6.90;99.90;;;;;;5117138;27;20039;-77
2022/01/18 14:07:08;;;;;;;14.65;5.97;;;6.90;99.90;;;;;;5130567;27;20043;-77
2022/01/18 14:09:35;;;;;;;22.52;6.20;;;6.90;99.90;;;;;;5122772;27;20034;-77
2022/01/18 14:12:00;;;;;;;12.50;5.72;;;6.90;99.90;;;;;;5118712;27;20051;-78
2022/01/18 14:14:33;;;;;;;16.35;6.07;;;6.80;99.90;;;;;;5122570;27;20043;-77
2022/01/18 14:17:05;;;;;;;18.33;6.30;;;6.70;99.90;;;;;;5104140;27;20044;-77
2022/01/18 14:19:33;;;;;;;15.93;6.93;;;6.60;99.90;;;;;;5114876;27;20027;-77
2022/01/18 14:22:15;;;;;;;16.48;6.30;;;6.50;99.90;;;;;;5092302;27;20034;-76
2022/01/18 14:24:43;;;;;;;18.13;6.32;;;6.50;99.90;;;;;;5101168;27;20038;-77